sensor_id;sensor_type;location;lat;lon;timestamp;P1;durP1;ratioP1;P2;durP2;ratioP2
28577;SDS011;15769;52.248;15.818;2022-08-20T00:04:09;24.00;;;20.58;;
28577;SDS011;15769;52.248;15.818;2022-08-20T00:09:12;25.02;;;21.15;;
28577;SDS011;15769;52.248;15.818;2022-08-20T00:14:14;25.27;;;20.30;;
28577;SDS011;15769;52.248;15.818;2022-08-20T00:19:17;24.40;;;20.60;;
28577;SDS011;15769;52.248;15.818;2022-08-20T00:24:19;25.40;;;22.15;;
28577;SDS011;15769;52.248;15.818;2022-08-20T00:34:24;26.33;;;22.73;;
28577;SDS011;15769;52.248;15.818;2022-08-20T00:39:32;23.40;;;20.90;;
28577;SDS011;15769;52.248;15.818;2022-08-20T00:44:35;23.08;;;20.58;;
28577;SDS011;15769;52.248;15.818;2022-08-20T00:49:37;23.15;;;20.63;;
28577;SDS011;15769;52.248;15.818;2022-08-20T00:54:41;23.98;;;20.83;;
28577;SDS011;15769;52.248;15.818;2022-08-20T00:59:46;22.63;;;19.48;;
28577;SDS011;15769;52.248;15.818;2022-08-20T01:04:50;23.48;;;20.95;;
28577;SDS011;15769;52.248;15.818;2022-08-20T01:09:55;22.10;;;18.73;;
28577;SDS011;15769;52.248;15.818;2022-08-20T01:15:00;23.77;;;21.25;;
28577;SDS011;15769;52.248;15.818;2022-08-20T01:20:09;23.67;;;21.10;;
28577;SDS011;15769;52.248;15.818;2022-08-20T01:25:17;24.52;;;21.85;;
28577;SDS011;15769;52.248;15.818;2022-08-20T01:30:25;20.60;;;18.17;;
28577;SDS011;15769;52.248;15.818;2022-08-20T01:35:29;23.48;;;20.65;;
28577;SDS011;15769;52.248;15.818;2022-08-20T01:45:53;23.75;;;21.23;;
28577;SDS011;15769;52.248;15.818;2022-08-20T01:51:07;22.48;;;20.13;;
28577;SDS011;15769;52.248;15.818;2022-08-20T01:56:16;23.02;;;20.58;;
28577;SDS011;15769;52.248;15.818;2022-08-20T02:01:28;24.10;;;21.08;;
28577;SDS011;15769;52.248;15.818;2022-08-20T02:06:50;22.98;;;19.63;;
28577;SDS011;15769;52.248;15.818;2022-08-20T02:11:58;24.70;;;21.17;;
28577;SDS011;15769;52.248;15.818;2022-08-20T02:17:01;24.08;;;21.58;;
28577;SDS011;15769;52.248;15.818;2022-08-20T02:22:13;21.85;;;19.33;;
28577;SDS011;15769;52.248;15.818;2022-08-20T02:27:22;22.90;;;20.08;;
28577;SDS011;15769;52.248;15.818;2022-08-20T02:32:25;27.73;;;22.35;;
28577;SDS011;15769;52.248;15.818;2022-08-20T02:37:38;24.42;;;21.83;;
28577;SDS011;15769;52.248;15.818;2022-08-20T02:42:41;25.63;;;22.92;;
28577;SDS011;15769;52.248;15.818;2022-08-20T02:47:45;24.88;;;22.17;;
28577;SDS011;15769;52.248;15.818;2022-08-20T02:52:48;25.10;;;22.50;;
28577;SDS011;15769;52.248;15.818;2022-08-20T02:57:53;24.30;;;21.65;;
28577;SDS011;15769;52.248;15.818;2022-08-20T03:03:00;24.83;;;22.17;;
28577;SDS011;15769;52.248;15.818;2022-08-20T03:13:05;23.87;;;21.27;;
28577;SDS011;15769;52.248;15.818;2022-08-20T03:18:12;22.50;;;20.20;;
28577;SDS011;15769;52.248;15.818;2022-08-20T03:23:16;25.48;;;22.38;;
28577;SDS011;15769;52.248;15.818;2022-08-20T03:28:20;26.92;;;21.88;;
28577;SDS011;15769;52.248;15.818;2022-08-20T03:33:22;23.20;;;20.65;;
28577;SDS011;15769;52.248;15.818;2022-08-20T03:38:25;23.30;;;20.88;;
28577;SDS011;15769;52.248;15.818;2022-08-20T03:43:34;23.98;;;21.00;;
28577;SDS011;15769;52.248;15.818;2022-08-20T03:48:39;25.83;;;21.17;;
28577;SDS011;15769;52.248;15.818;2022-08-20T03:53:41;24.70;;;21.17;;
28577;SDS011;15769;52.248;15.818;2022-08-20T03:58:43;23.65;;;21.15;;
28577;SDS011;15769;52.248;15.818;2022-08-20T04:03:47;24.00;;;21.33;;
28577;SDS011;15769;52.248;15.818;2022-08-20T04:08:57;24.25;;;21.65;;
28577;SDS011;15769;52.248;15.818;2022-08-20T04:14:00;25.80;;;22.10;;
28577;SDS011;15769;52.248;15.818;2022-08-20T04:24:06;25.45;;;22.10;;
28577;SDS011;15769;52.248;15.818;2022-08-20T04:29:24;22.30;;;20.00;;
28577;SDS011;15769;52.248;15.818;2022-08-20T04:34:33;26.30;;;22.27;;
28577;SDS011;15769;52.248;15.818;2022-08-20T04:39:36;23.60;;;21.10;;
28577;SDS011;15769;52.248;15.818;2022-08-20T04:50:49;26.65;;;23.88;;
28577;SDS011;15769;52.248;15.818;2022-08-20T04:55:54;26.13;;;22.42;;
28577;SDS011;15769;52.248;15.818;2022-08-20T05:00:59;20.98;;;18.88;;
28577;SDS011;15769;52.248;15.818;2022-08-20T05:06:06;31.05;;;25.08;;
28577;SDS011;15769;52.248;15.818;2022-08-20T05:11:10;26.73;;;22.08;;
28577;SDS011;15769;52.248;15.818;2022-08-20T05:16:32;25.08;;;21.08;;
28577;SDS011;15769;52.248;15.818;2022-08-20T05:21:41;25.63;;;21.33;;
28577;SDS011;15769;52.248;15.818;2022-08-20T05:26:44;23.67;;;19.48;;
28577;SDS011;15769;52.248;15.818;2022-08-20T05:31:46;29.75;;;23.17;;
28577;SDS011;15769;52.248;15.818;2022-08-20T05:36:49;33.22;;;23.45;;
28577;SDS011;15769;52.248;15.818;2022-08-20T05:41:54;32.40;;;24.45;;
28577;SDS011;15769;52.248;15.818;2022-08-20T05:52:00;37.80;;;26.47;;
28577;SDS011;15769;52.248;15.818;2022-08-20T05:57:03;33.90;;;25.48;;
28577;SDS011;15769;52.248;15.818;2022-08-20T06:02:05;36.67;;;27.83;;
28577;SDS011;15769;52.248;15.818;2022-08-20T06:07:28;36.17;;;26.13;;
28577;SDS011;15769;52.248;15.818;2022-08-20T06:12:31;39.05;;;28.77;;
28577;SDS011;15769;52.248;15.818;2022-08-20T06:17:37;34.13;;;26.65;;
28577;SDS011;15769;52.248;15.818;2022-08-20T06:22:40;38.60;;;28.50;;
28577;SDS011;15769;52.248;15.818;2022-08-20T06:27:43;40.22;;;29.98;;
28577;SDS011;15769;52.248;15.818;2022-08-20T06:32:47;35.92;;;27.20;;
28577;SDS011;15769;52.248;15.818;2022-08-20T06:37:52;32.47;;;25.85;;
28577;SDS011;15769;52.248;15.818;2022-08-20T06:42:55;35.28;;;25.95;;
28577;SDS011;15769;52.248;15.818;2022-08-20T06:48:00;35.45;;;26.88;;
28577;SDS011;15769;52.248;15.818;2022-08-20T06:53:07;29.90;;;23.85;;
28577;SDS011;15769;52.248;15.818;2022-08-20T06:58:12;29.17;;;23.08;;
28577;SDS011;15769;52.248;15.818;2022-08-20T07:03:35;34.15;;;24.25;;
28577;SDS011;15769;52.248;15.818;2022-08-20T07:08:39;30.55;;;26.05;;
28577;SDS011;15769;52.248;15.818;2022-08-20T07:13:44;35.05;;;25.95;;
28577;SDS011;15769;52.248;15.818;2022-08-20T07:18:46;28.70;;;23.92;;
28577;SDS011;15769;52.248;15.818;2022-08-20T07:23:49;28.42;;;23.70;;
28577;SDS011;15769;52.248;15.818;2022-08-20T07:28:51;27.55;;;23.17;;
28577;SDS011;15769;52.248;15.818;2022-08-20T07:33:54;29.17;;;23.25;;
28577;SDS011;15769;52.248;15.818;2022-08-20T07:38:57;34.13;;;26.92;;
28577;SDS011;15769;52.248;15.818;2022-08-20T07:44:00;33.90;;;26.17;;
28577;SDS011;15769;52.248;15.818;2022-08-20T07:54:11;33.30;;;26.02;;
28577;SDS011;15769;52.248;15.818;2022-08-20T07:59:14;31.70;;;24.42;;
28577;SDS011;15769;52.248;15.818;2022-08-20T08:04:17;26.40;;;23.52;;
28577;SDS011;15769;52.248;15.818;2022-08-20T08:09:20;30.92;;;24.48;;
28577;SDS011;15769;52.248;15.818;2022-08-20T08:14:24;31.30;;;23.65;;
28577;SDS011;15769;52.248;15.818;2022-08-20T08:19:31;25.70;;;21.75;;
28577;SDS011;15769;52.248;15.818;2022-08-20T08:24:39;27.75;;;23.52;;
28577;SDS011;15769;52.248;15.818;2022-08-20T08:29:59;27.65;;;22.77;;
28577;SDS011;15769;52.248;15.818;2022-08-20T08:35:03;25.88;;;22.73;;
28577;SDS011;15769;52.248;15.818;2022-08-20T08:40:08;26.55;;;22.17;;
28577;SDS011;15769;52.248;15.818;2022-08-20T08:45:11;28.50;;;23.70;;
28577;SDS011;15769;52.248;15.818;2022-08-20T08:50:23;27.42;;;22.42;;
28577;SDS011;15769;52.248;15.818;2022-08-20T08:55:47;29.33;;;23.65;;
28577;SDS011;15769;52.248;15.818;2022-08-20T09:00:49;28.55;;;23.15;;
28577;SDS011;15769;52.248;15.818;2022-08-20T09:05:59;24.38;;;21.70;;
28577;SDS011;15769;52.248;15.818;2022-08-20T09:11:03;23.98;;;20.10;;
28577;SDS011;15769;52.248;15.818;2022-08-20T09:16:07;22.73;;;19.33;;
28577;SDS011;15769;52.248;15.818;2022-08-20T09:21:11;23.83;;;20.67;;
28577;SDS011;15769;52.248;15.818;2022-08-20T09:26:15;27.25;;;19.58;;
28577;SDS011;15769;52.248;15.818;2022-08-20T09:31:17;18.80;;;16.02;;
28577;SDS011;15769;52.248;15.818;2022-08-20T09:36:22;25.67;;;19.00;;
28577;SDS011;15769;52.248;15.818;2022-08-20T09:41:33;19.08;;;16.80;;
28577;SDS011;15769;52.248;15.818;2022-08-20T09:46:35;18.83;;;16.83;;
28577;SDS011;15769;52.248;15.818;2022-08-20T09:51:38;17.20;;;15.05;;
28577;SDS011;15769;52.248;15.818;2022-08-20T09:56:40;17.52;;;15.45;;
28577;SDS011;15769;52.248;15.818;2022-08-20T10:01:45;18.95;;;16.63;;
28577;SDS011;15769;52.248;15.818;2022-08-20T10:11:49;20.38;;;17.45;;
28577;SDS011;15769;52.248;15.818;2022-08-20T10:22:01;18.27;;;16.38;;
28577;SDS011;15769;52.248;15.818;2022-08-20T10:27:03;19.13;;;16.55;;
28577;SDS011;15769;52.248;15.818;2022-08-20T10:32:07;21.85;;;18.90;;
28577;SDS011;15769;52.248;15.818;2022-08-20T10:37:13;19.42;;;17.40;;
28577;SDS011;15769;52.248;15.818;2022-08-20T10:42:21;19.80;;;17.70;;
28577;SDS011;15769;52.248;15.818;2022-08-20T10:47:25;18.92;;;17.02;;
28577;SDS011;15769;52.248;15.818;2022-08-20T10:52:29;19.45;;;17.38;;
28577;SDS011;15769;52.248;15.818;2022-08-20T10:57:32;18.70;;;16.65;;
28577;SDS011;15769;52.248;15.818;2022-08-20T11:02:34;18.92;;;16.92;;
28577;SDS011;15769;52.248;15.818;2022-08-20T11:07:40;17.48;;;15.63;;
28577;SDS011;15769;52.248;15.818;2022-08-20T11:12:59;19.45;;;16.45;;
28577;SDS011;15769;52.248;15.818;2022-08-20T11:18:04;18.60;;;16.60;;
28577;SDS011;15769;52.248;15.818;2022-08-20T11:23:07;18.50;;;16.60;;
28577;SDS011;15769;52.248;15.818;2022-08-20T11:28:09;19.73;;;16.17;;
28577;SDS011;15769;52.248;15.818;2022-08-20T11:33:16;18.42;;;16.52;;
28577;SDS011;15769;52.248;15.818;2022-08-20T11:38:24;20.45;;;16.58;;
28577;SDS011;15769;52.248;15.818;2022-08-20T11:43:30;17.73;;;15.82;;
28577;SDS011;15769;52.248;15.818;2022-08-20T11:48:33;21.00;;;17.10;;
28577;SDS011;15769;52.248;15.818;2022-08-20T11:53:38;16.95;;;15.23;;
28577;SDS011;15769;52.248;15.818;2022-08-20T11:58:46;18.15;;;16.20;;
28577;SDS011;15769;52.248;15.818;2022-08-20T12:04:10;18.33;;;15.18;;
28577;SDS011;15769;52.248;15.818;2022-08-20T12:09:20;18.70;;;15.38;;
28577;SDS011;15769;52.248;15.818;2022-08-20T12:14:25;16.55;;;13.93;;
28577;SDS011;15769;52.248;15.818;2022-08-20T12:19:35;15.77;;;14.07;;
28577;SDS011;15769;52.248;15.818;2022-08-20T12:24:41;17.02;;;15.23;;
28577;SDS011;15769;52.248;15.818;2022-08-20T12:29:52;13.48;;;12.18;;
28577;SDS011;15769;52.248;15.818;2022-08-20T12:35:16;16.88;;;15.02;;
28577;SDS011;15769;52.248;15.818;2022-08-20T12:40:25;14.82;;;13.30;;
28577;SDS011;15769;52.248;15.818;2022-08-20T12:45:54;14.88;;;12.20;;
28577;SDS011;15769;52.248;15.818;2022-08-20T12:51:26;14.25;;;12.75;;
28577;SDS011;15769;52.248;15.818;2022-08-20T12:56:29;12.20;;;10.05;;
28577;SDS011;15769;52.248;15.818;2022-08-20T13:01:32;13.10;;;10.32;;
28577;SDS011;15769;52.248;15.818;2022-08-20T13:06:34;10.27;;;8.32;;
28577;SDS011;15769;52.248;15.818;2022-08-20T13:16:39;6.80;;;5.32;;
28577;SDS011;15769;52.248;15.818;2022-08-20T13:21:41;6.30;;;5.72;;
28577;SDS011;15769;52.248;15.818;2022-08-20T13:27:05;6.07;;;5.38;;
28577;SDS011;15769;52.248;15.818;2022-08-20T13:32:09;6.80;;;6.20;;
28577;SDS011;15769;52.248;15.818;2022-08-20T13:37:12;8.35;;;7.38;;
28577;SDS011;15769;52.248;15.818;2022-08-20T13:42:17;9.10;;;8.20;;
28577;SDS011;15769;52.248;15.818;2022-08-20T13:47:21;9.80;;;8.80;;
28577;SDS011;15769;52.248;15.818;2022-08-20T13:52:25;11.05;;;9.55;;
28577;SDS011;15769;52.248;15.818;2022-08-20T13:57:36;8.93;;;8.00;;
28577;SDS011;15769;52.248;15.818;2022-08-20T14:02:42;9.70;;;8.80;;
28577;SDS011;15769;52.248;15.818;2022-08-20T14:07:46;10.77;;;9.07;;
28577;SDS011;15769;52.248;15.818;2022-08-20T14:13:07;9.73;;;8.82;;
28577;SDS011;15769;52.248;15.818;2022-08-20T14:18:20;9.35;;;7.93;;
28577;SDS011;15769;52.248;15.818;2022-08-20T14:23:46;9.20;;;8.30;;
28577;SDS011;15769;52.248;15.818;2022-08-20T14:29:10;9.07;;;7.38;;
28577;SDS011;15769;52.248;15.818;2022-08-20T14:34:36;8.18;;;7.25;;
28577;SDS011;15769;52.248;15.818;2022-08-20T14:39:43;8.50;;;7.10;;
28577;SDS011;15769;52.248;15.818;2022-08-20T14:44:47;7.18;;;6.47;;
28577;SDS011;15769;52.248;15.818;2022-08-20T14:50:04;6.75;;;6.05;;
28577;SDS011;15769;52.248;15.818;2022-08-20T14:55:16;7.50;;;6.80;;
28577;SDS011;15769;52.248;15.818;2022-08-20T15:00:23;7.45;;;6.50;;
28577;SDS011;15769;52.248;15.818;2022-08-20T15:05:28;7.35;;;6.75;;
28577;SDS011;15769;52.248;15.818;2022-08-20T15:10:31;7.53;;;6.82;;
28577;SDS011;15769;52.248;15.818;2022-08-20T15:15:34;7.80;;;7.10;;
28577;SDS011;15769;52.248;15.818;2022-08-20T15:20:37;8.35;;;7.60;;
28577;SDS011;15769;52.248;15.818;2022-08-20T15:25:41;6.70;;;6.13;;
28577;SDS011;15769;52.248;15.818;2022-08-20T15:35:46;4.60;;;4.28;;
28577;SDS011;15769;52.248;15.818;2022-08-20T15:45:51;4.70;;;3.80;;
28577;SDS011;15769;52.248;15.818;2022-08-20T16:01:29;4.22;;;3.25;;
28577;SDS011;15769;52.248;15.818;2022-08-20T16:06:37;3.75;;;3.45;;
28577;SDS011;15769;52.248;15.818;2022-08-20T16:16:53;4.13;;;3.83;;
28577;SDS011;15769;52.248;15.818;2022-08-20T16:22:02;5.60;;;4.65;;
28577;SDS011;15769;52.248;15.818;2022-08-20T16:32:42;5.63;;;5.07;;
28577;SDS011;15769;52.248;15.818;2022-08-20T16:43:03;5.72;;;5.22;;
28577;SDS011;15769;52.248;15.818;2022-08-20T16:48:06;6.60;;;6.00;;
28577;SDS011;15769;52.248;15.818;2022-08-20T16:53:15;7.15;;;6.45;;
28577;SDS011;15769;52.248;15.818;2022-08-20T16:58:20;6.32;;;5.70;;
28577;SDS011;15769;52.248;15.818;2022-08-20T17:03:28;6.20;;;5.60;;
28577;SDS011;15769;52.248;15.818;2022-08-20T17:08:46;5.85;;;5.35;;
28577;SDS011;15769;52.248;15.818;2022-08-20T17:14:01;7.03;;;6.43;;
28577;SDS011;15769;52.248;15.818;2022-08-20T17:19:14;6.80;;;6.20;;
28577;SDS011;15769;52.248;15.818;2022-08-20T17:24:30;7.85;;;7.15;;
28577;SDS011;15769;52.248;15.818;2022-08-20T17:29:34;7.03;;;6.43;;
28577;SDS011;15769;52.248;15.818;2022-08-20T17:34:43;8.30;;;7.50;;
28577;SDS011;15769;52.248;15.818;2022-08-20T17:39:50;8.00;;;7.03;;
28577;SDS011;15769;52.248;15.818;2022-08-20T17:50:48;7.68;;;6.43;;
28577;SDS011;15769;52.248;15.818;2022-08-20T17:55:55;7.65;;;6.05;;
28577;SDS011;15769;52.248;15.818;2022-08-20T18:01:03;8.35;;;7.53;;
28577;SDS011;15769;52.248;15.818;2022-08-20T18:06:12;7.78;;;7.07;;
28577;SDS011;15769;52.248;15.818;2022-08-20T18:11:31;7.55;;;6.82;;
28577;SDS011;15769;52.248;15.818;2022-08-20T18:26:45;32.20;;;29.30;;
28577;SDS011;15769;52.248;15.818;2022-08-20T18:31:53;14.00;;;12.60;;
28577;SDS011;15769;52.248;15.818;2022-08-20T18:37:01;12.55;;;11.25;;
28577;SDS011;15769;52.248;15.818;2022-08-20T18:42:08;10.25;;;9.23;;
28577;SDS011;15769;52.248;15.818;2022-08-20T18:52:34;10.23;;;9.32;;
28577;SDS011;15769;52.248;15.818;2022-08-20T18:58:01;9.23;;;8.32;;
28577;SDS011;15769;52.248;15.818;2022-08-20T19:08:15;10.88;;;8.15;;
28577;SDS011;15769;52.248;15.818;2022-08-20T19:18:46;12.25;;;10.98;;
28577;SDS011;15769;52.248;15.818;2022-08-20T19:24:06;10.82;;;9.68;;
28577;SDS011;15769;52.248;15.818;2022-08-20T19:29:12;10.30;;;9.18;;
28577;SDS011;15769;52.248;15.818;2022-08-20T19:34:21;14.63;;;11.48;;
28577;SDS011;15769;52.248;15.818;2022-08-20T19:39:26;10.35;;;9.32;;
28577;SDS011;15769;52.248;15.818;2022-08-20T19:49:53;9.73;;;8.70;;
28577;SDS011;15769;52.248;15.818;2022-08-20T19:54:58;10.45;;;9.50;;
28577;SDS011;15769;52.248;15.818;2022-08-20T20:00:08;9.25;;;8.40;;
28577;SDS011;15769;52.248;15.818;2022-08-20T20:05:14;9.40;;;8.40;;
28577;SDS011;15769;52.248;15.818;2022-08-20T20:10:31;8.68;;;7.78;;
28577;SDS011;15769;52.248;15.818;2022-08-20T20:15:36;10.32;;;9.32;;
28577;SDS011;15769;52.248;15.818;2022-08-20T20:21:24;10.10;;;9.20;;
28577;SDS011;15769;52.248;15.818;2022-08-20T20:26:17;9.60;;;8.70;;
28577;SDS011;15769;52.248;15.818;2022-08-20T20:31:29;8.73;;;7.82;;
28577;SDS011;15769;52.248;15.818;2022-08-20T20:36:36;9.13;;;7.72;;
28577;SDS011;15769;52.248;15.818;2022-08-20T20:41:48;9.35;;;8.45;;
28577;SDS011;15769;52.248;15.818;2022-08-20T20:46:56;8.45;;;7.65;;
28577;SDS011;15769;52.248;15.818;2022-08-20T21:02:19;8.23;;;7.40;;
28577;SDS011;15769;52.248;15.818;2022-08-20T21:07:23;8.43;;;7.63;;
28577;SDS011;15769;52.248;15.818;2022-08-20T21:12:26;7.95;;;7.18;;
28577;SDS011;15769;52.248;15.818;2022-08-20T21:17:29;7.35;;;6.65;;
28577;SDS011;15769;52.248;15.818;2022-08-20T21:22:32;6.72;;;6.13;;
28577;SDS011;15769;52.248;15.818;2022-08-20T21:27:38;6.97;;;6.00;;
28577;SDS011;15769;52.248;15.818;2022-08-20T21:32:48;6.50;;;5.90;;
28577;SDS011;15769;52.248;15.818;2022-08-20T21:37:52;6.15;;;5.55;;
28577;SDS011;15769;52.248;15.818;2022-08-20T21:42:55;6.50;;;5.90;;
28577;SDS011;15769;52.248;15.818;2022-08-20T21:47:59;6.65;;;5.95;;
28577;SDS011;15769;52.248;15.818;2022-08-20T21:53:03;8.85;;;7.43;;
28577;SDS011;15769;52.248;15.818;2022-08-20T21:58:14;7.15;;;6.45;;
28577;SDS011;15769;52.248;15.818;2022-08-20T22:03:18;7.10;;;6.40;;
28577;SDS011;15769;52.248;15.818;2022-08-20T22:08:22;10.25;;;7.53;;
28577;SDS011;15769;52.248;15.818;2022-08-20T22:13:31;8.23;;;7.43;;
28577;SDS011;15769;52.248;15.818;2022-08-20T22:18:37;9.05;;;8.15;;
28577;SDS011;15769;52.248;15.818;2022-08-20T22:23:42;8.20;;;7.15;;
28577;SDS011;15769;52.248;15.818;2022-08-20T22:33:51;10.65;;;8.77;;
28577;SDS011;15769;52.248;15.818;2022-08-20T22:38:54;10.48;;;9.48;;
28577;SDS011;15769;52.248;15.818;2022-08-20T22:44:11;9.23;;;8.25;;
28577;SDS011;15769;52.248;15.818;2022-08-20T22:49:16;10.23;;;9.20;;
28577;SDS011;15769;52.248;15.818;2022-08-20T22:54:21;10.32;;;9.32;;
28577;SDS011;15769;52.248;15.818;2022-08-20T22:59:39;11.45;;;10.25;;
28577;SDS011;15769;52.248;15.818;2022-08-20T23:04:54;10.07;;;9.07;;
28577;SDS011;15769;52.248;15.818;2022-08-20T23:09:58;10.93;;;9.80;;
28577;SDS011;15769;52.248;15.818;2022-08-20T23:15:00;12.07;;;10.77;;
28577;SDS011;15769;52.248;15.818;2022-08-20T23:20:06;13.63;;;12.23;;
28577;SDS011;15769;52.248;15.818;2022-08-20T23:25:13;10.90;;;9.27;;
28577;SDS011;15769;52.248;15.818;2022-08-20T23:30:16;11.30;;;10.10;;
28577;SDS011;15769;52.248;15.818;2022-08-20T23:35:20;12.88;;;11.45;;
28577;SDS011;15769;52.248;15.818;2022-08-20T23:40:33;11.40;;;9.55;;
28577;SDS011;15769;52.248;15.818;2022-08-20T23:45:37;11.50;;;9.50;;
28577;SDS011;15769;52.248;15.818;2022-08-20T23:50:42;9.82;;;8.70;;
28577;SDS011;15769;52.248;15.818;2022-08-20T23:55:45;7.32;;;6.63;;
